Weather at Phoenix-Mesa-Gateway Airport

Public forecast

Using degrees Fahrenheit for public forecast. Weather courtesy of forecast.io.

Current aviation weather report (METAR) for Phoenix-Mesa-Gateway Airport

Report is more than 2 hours old.

Retrieved 2020/11/24 02:47 UTC (3 hours ago):

KIWA 240247Z 00000KT 10SM SKC 18/M01 A2977

Aviation forecast (TAF) for Phoenix-Mesa-Gateway Airport

Retrieved 2020-11-24 00:28 UTC (5 hours ago):

TAF KIWA 232326Z 2400/2424 28010KT P6SM SCT250 FM240300 24008KT P6SM SKC FM240900 14009KT P6SM SKC FM241800 28006KT P6SM SKC